Time;durP1;ratioP1;P1;durP2;ratioP2;P2;SDS_P1;SDS_P2;PMS_P1;PMS_P2;Temp;Humidity;BMP_temperature;BMP_pressure;BME280_temperature;BME280_humidity;BME280_pressure;Samples;Min_cycle;Max_cycle;Signal;HPM_P1;HPM_P2
2023/12/04 00:02:00;;;;;;;29.33;12.35;;;1.00;99.90;;;;;;4971071;28;20058;-63
2023/12/04 00:04:26;;;;;;;30.83;13.82;;;1.00;99.90;;;;;;4965110;28;20046;-63
2023/12/04 00:06:51;;;;;;;32.92;13.07;;;1.00;99.90;;;;;;4971714;28;20019;-64
2023/12/04 00:09:17;;;;;;;28.45;11.30;;;1.00;99.90;;;;;;4967209;28;20034;-63
2023/12/04 00:11:42;;;;;;;29.95;13.05;;;1.00;99.90;;;;;;4970187;28;20022;-63
2023/12/04 00:14:08;;;;;;;29.02;12.68;;;1.00;99.90;;;;;;4966445;28;20105;-64
2023/12/04 00:16:36;;;;;;;25.48;12.65;;;1.00;99.90;;;;;;4971265;28;20107;-63
2023/12/04 00:19:02;;;;;;;27.77;13.05;;;1.00;99.90;;;;;;4966880;28;20015;-64
2023/12/04 00:21:28;;;;;;;27.30;13.07;;;1.00;99.90;;;;;;4963651;28;20037;-64
2023/12/04 00:23:53;;;;;;;28.98;12.70;;;1.00;99.90;;;;;;4964542;28;20034;-67
2023/12/04 00:26:19;;;;;;;27.45;12.45;;;1.00;99.90;;;;;;4963948;28;20030;-65
2023/12/04 00:28:44;;;;;;;24.48;11.82;;;1.00;99.90;;;;;;4961480;28;20035;-63
2023/12/04 00:31:10;;;;;;;29.33;12.32;;;0.90;99.90;;;;;;4963183;28;20109;-64
2023/12/04 00:33:36;;;;;;;27.80;12.88;;;0.90;99.90;;;;;;4964077;28;20127;-64
2023/12/04 00:36:02;;;;;;;25.92;11.40;;;0.90;99.90;;;;;;4963718;28;20497;-60
2023/12/04 00:38:27;;;;;;;27.38;12.75;;;0.80;99.90;;;;;;4962773;28;20122;-63
2023/12/04 00:40:53;;;;;;;29.83;12.65;;;0.90;99.90;;;;;;4964047;28;20026;-64
2023/12/04 00:43:18;;;;;;;29.25;12.73;;;0.90;99.90;;;;;;4963839;28;20031;-64
2023/12/04 00:45:44;;;;;;;34.22;14.00;;;0.80;99.90;;;;;;4964376;28;20038;-63
2023/12/04 00:48:09;;;;;;;29.33;13.07;;;0.90;99.90;;;;;;4967416;28;20046;-63
2023/12/04 00:50:35;;;;;;;25.05;11.77;;;0.80;99.90;;;;;;4967698;28;20026;-63
2023/12/04 00:53:01;;;;;;;28.73;12.40;;;0.80;99.90;;;;;;4966641;28;20035;-63
2023/12/04 00:55:26;;;;;;;31.15;11.95;;;0.80;99.90;;;;;;4969403;28;20027;-63
2023/12/04 00:57:52;;;;;;;27.42;11.07;;;0.90;99.90;;;;;;4969432;28;20027;-62
2023/12/04 01:00:18;;;;;;;27.65;12.35;;;0.80;99.90;;;;;;4969952;28;20373;-63
2023/12/04 01:02:43;;;;;;;28.30;12.55;;;0.80;99.90;;;;;;4969168;28;20054;-64
2023/12/04 01:05:09;;;;;;;22.88;11.25;;;0.80;99.90;;;;;;4970305;28;20033;-64
2023/12/04 01:07:34;;;;;;;27.70;12.07;;;0.90;99.90;;;;;;4968694;28;20066;-62
2023/12/04 01:10:00;;;;;;;28.08;12.43;;;0.90;99.90;;;;;;4968516;28;20023;-64
2023/12/04 01:12:26;;;;;;;29.45;11.82;;;0.80;99.90;;;;;;4970271;28;20042;-63
2023/12/04 01:14:52;;;;;;;29.25;11.68;;;0.90;99.90;;;;;;4968636;28;20066;-62
2023/12/04 01:17:17;;;;;;;26.73;12.15;;;0.90;99.90;;;;;;4971446;28;20078;-61
2023/12/04 01:19:43;;;;;;;22.70;11.52;;;0.80;99.90;;;;;;4970694;28;20062;-62
2023/12/04 01:22:08;;;;;;;30.23;12.23;;;0.80;99.90;;;;;;4969694;28;20098;-62
2023/12/04 01:24:34;;;;;;;27.30;11.68;;;0.80;99.90;;;;;;4961961;28;20026;-63
2023/12/04 01:26:59;;;;;;;27.52;10.98;;;0.80;99.90;;;;;;4967275;28;20026;-63
2023/12/04 01:29:25;;;;;;;24.98;11.45;;;0.80;99.90;;;;;;4966164;28;20031;-61
2023/12/04 01:31:50;;;;;;;22.67;11.20;;;0.80;99.90;;;;;;4966049;28;20044;-63
2023/12/04 01:34:16;;;;;;;25.17;11.45;;;0.80;99.90;;;;;;4971115;28;20110;-63
2023/12/04 01:36:41;;;;;;;26.73;10.82;;;0.90;99.90;;;;;;4967190;28;20035;-63
2023/12/04 01:39:07;;;;;;;27.98;11.77;;;0.90;99.90;;;;;;4968588;28;20103;-61
2023/12/04 01:41:33;;;;;;;25.02;11.18;;;0.90;99.90;;;;;;4970003;28;20030;-61
2023/12/04 01:43:58;;;;;;;26.23;10.90;;;0.90;99.90;;;;;;4970047;28;20043;-64
2023/12/04 01:46:24;;;;;;;23.58;10.85;;;0.90;99.90;;;;;;4971121;28;20038;-63
2023/12/04 01:48:50;;;;;;;27.55;12.27;;;0.90;99.90;;;;;;4970056;28;20381;-64
2023/12/04 01:51:17;;;;;;;27.10;11.13;;;0.90;99.90;;;;;;4970822;28;20034;-63
2023/12/04 01:53:44;;;;;;;28.55;11.88;;;0.90;99.90;;;;;;4965680;28;20027;-63
2023/12/04 01:56:10;;;;;;;27.95;12.65;;;0.90;99.90;;;;;;4970159;28;20023;-63
2023/12/04 01:58:36;;;;;;;28.15;12.90;;;0.90;99.90;;;;;;4967081;28;20041;-63
2023/12/04 02:01:03;;;;;;;27.50;11.73;;;0.90;99.90;;;;;;4969496;28;20038;-61
2023/12/04 02:03:30;;;;;;;28.25;11.68;;;0.90;99.90;;;;;;4966464;28;20026;-62
2023/12/04 02:05:59;;;;;;;28.17;12.40;;;1.00;99.90;;;;;;4970995;28;20516;-63
2023/12/04 02:08:25;;;;;;;24.88;11.43;;;1.00;99.90;;;;;;4965387;28;20109;-63
2023/12/04 02:10:51;;;;;;;25.95;11.73;;;1.00;99.90;;;;;;4967604;28;20031;-62
2023/12/04 02:13:16;;;;;;;23.30;11.32;;;1.00;99.90;;;;;;4972581;28;20683;-65
2023/12/04 02:15:42;;;;;;;27.13;12.18;;;1.00;99.90;;;;;;4968157;28;20027;-63
2023/12/04 02:18:08;;;;;;;25.05;11.13;;;1.00;99.90;;;;;;4968133;28;20117;-61
2023/12/04 02:20:34;;;;;;;23.42;10.68;;;1.00;99.90;;;;;;4965646;28;20026;-63
2023/12/04 02:23:01;;;;;;;25.02;10.60;;;0.90;99.90;;;;;;4970510;28;20031;-66
2023/12/04 02:25:28;;;;;;;26.65;11.43;;;0.90;99.90;;;;;;4965926;28;20034;-61
2023/12/04 02:27:55;;;;;;;23.33;11.15;;;0.90;99.90;;;;;;4966009;28;20054;-64
2023/12/04 02:30:24;;;;;;;24.70;11.60;;;0.90;99.90;;;;;;4966964;28;20119;-64
2023/12/04 02:32:51;;;;;;;25.02;10.80;;;0.90;99.90;;;;;;4966314;28;20033;-62
2023/12/04 02:35:22;;;;;;;25.85;10.98;;;0.90;99.90;;;;;;4964354;28;20034;-62
2023/12/04 02:37:48;;;;;;;24.13;10.23;;;1.00;99.90;;;;;;4967671;28;20030;-60
2023/12/04 02:40:15;;;;;;;23.13;10.80;;;0.90;99.90;;;;;;4965937;28;20346;-63
2023/12/04 02:42:40;;;;;;;24.95;11.35;;;0.90;99.90;;;;;;4970083;28;20058;-64
2023/12/04 02:45:06;;;;;;;24.30;11.05;;;0.90;99.90;;;;;;4965100;28;20034;-61
2023/12/04 02:47:32;;;;;;;28.48;11.15;;;1.00;99.90;;;;;;4970935;28;20041;-62
2023/12/04 02:49:57;;;;;;;21.48;9.45;;;0.90;99.90;;;;;;4967965;28;20031;-64
2023/12/04 02:52:23;;;;;;;23.25;10.68;;;1.00;99.90;;;;;;4967691;28;20424;-64
2023/12/04 02:54:48;;;;;;;21.23;10.35;;;1.00;99.90;;;;;;4961288;28;20039;-63
2023/12/04 02:57:14;;;;;;;29.33;11.05;;;0.90;99.90;;;;;;4967056;28;20074;-62
2023/12/04 02:59:40;;;;;;;22.42;10.38;;;0.90;99.90;;;;;;4966861;28;20793;-65
2023/12/04 03:02:05;;;;;;;22.92;9.63;;;0.90;99.90;;;;;;4966061;28;20186;-64
2023/12/04 03:04:31;;;;;;;27.20;10.02;;;0.90;99.90;;;;;;4965343;28;20030;-64
2023/12/04 03:06:57;;;;;;;20.00;9.70;;;0.90;99.90;;;;;;4964963;28;20023;-65
2023/12/04 03:09:23;;;;;;;22.80;9.95;;;0.90;99.90;;;;;;4963329;28;20042;-65
2023/12/04 03:11:48;;;;;;;22.13;9.98;;;0.80;99.90;;;;;;4963668;28;20030;-65
2023/12/04 03:14:14;;;;;;;23.13;9.95;;;0.90;99.90;;;;;;4962614;28;20079;-65
2023/12/04 03:16:40;;;;;;;25.13;11.57;;;0.80;99.90;;;;;;4964124;28;20034;-64
2023/12/04 03:19:05;;;;;;;21.23;10.25;;;0.80;99.90;;;;;;4964807;28;20039;-64
2023/12/04 03:21:31;;;;;;;20.95;9.93;;;0.90;99.90;;;;;;4966578;28;20027;-61
2023/12/04 03:23:56;;;;;;;29.90;11.90;;;0.90;99.90;;;;;;4970047;28;20027;-62
2023/12/04 03:26:22;;;;;;;23.88;10.68;;;0.90;99.90;;;;;;4968528;28;20085;-66
2023/12/04 03:28:48;;;;;;;23.52;10.55;;;0.90;99.90;;;;;;4963134;28;20481;-64
2023/12/04 03:31:13;;;;;;;23.20;11.10;;;1.00;99.90;;;;;;4964040;28;20405;-63
2023/12/04 03:33:39;;;;;;;20.05;9.38;;;1.00;99.90;;;;;;4962192;28;20031;-62
2023/12/04 03:36:05;;;;;;;25.25;11.05;;;1.00;99.90;;;;;;4962699;28;20038;-62
2023/12/04 03:38:30;;;;;;;25.08;10.75;;;1.00;99.90;;;;;;4964585;28;20057;-62
2023/12/04 03:40:56;;;;;;;24.10;11.00;;;1.00;99.90;;;;;;4964558;28;20512;-62
2023/12/04 03:43:21;;;;;;;22.92;10.13;;;1.00;99.90;;;;;;4967164;28;20844;-63
2023/12/04 03:45:47;;;;;;;26.58;11.02;;;0.90;99.90;;;;;;4963307;28;20122;-62
2023/12/04 03:48:12;;;;;;;23.48;10.07;;;0.90;99.90;;;;;;4965243;28;20516;-64
2023/12/04 03:50:38;;;;;;;29.30;11.60;;;0.90;99.90;;;;;;4963595;28;20035;-63
2023/12/04 03:53:03;;;;;;;21.60;10.32;;;1.00;99.90;;;;;;4966648;28;20022;-62
2023/12/04 03:55:29;;;;;;;24.08;11.25;;;1.00;99.90;;;;;;4967234;28;20038;-62
2023/12/04 03:57:54;;;;;;;24.20;10.15;;;1.00;99.90;;;;;;4969770;28;20031;-61
2023/12/04 04:00:20;;;;;;;22.85;10.05;;;0.90;99.90;;;;;;4967325;28;20027;-62
2023/12/04 04:02:46;;;;;;;22.88;9.88;;;0.90;99.90;;;;;;4968310;28;20038;-63
2023/12/04 04:05:12;;;;;;;23.52;10.45;;;0.90;99.90;;;;;;4966503;28;20516;-63
2023/12/04 04:07:37;;;;;;;26.20;11.45;;;0.90;99.90;;;;;;4966925;28;20045;-61
2023/12/04 04:10:06;;;;;;;23.35;10.50;;;0.90;99.90;;;;;;4964619;28;20030;-63
2023/12/04 04:12:32;;;;;;;24.98;11.20;;;0.80;99.90;;;;;;4964907;28;20035;-63
2023/12/04 04:14:57;;;;;;;21.63;9.95;;;0.80;99.90;;;;;;4968317;28;20114;-63
2023/12/04 04:17:25;;;;;;;23.63;12.35;;;0.90;99.90;;;;;;4969338;28;20042;-63
2023/12/04 04:19:51;;;;;;;23.73;10.00;;;0.90;99.90;;;;;;4962917;28;20181;-64
2023/12/04 04:22:17;;;;;;;22.20;10.68;;;0.90;99.90;;;;;;4963809;28;20516;-63
2023/12/04 04:24:43;;;;;;;25.08;10.88;;;0.90;99.90;;;;;;4964087;28;20034;-64
2023/12/04 04:27:08;;;;;;;28.02;11.13;;;0.90;99.90;;;;;;4963840;28;20030;-63
2023/12/04 04:29:34;;;;;;;24.67;10.82;;;0.90;99.90;;;;;;4964345;28;20027;-64
2023/12/04 04:31:59;;;;;;;25.10;11.32;;;0.90;99.90;;;;;;4963999;28;20027;-64
2023/12/04 04:34:25;;;;;;;25.17;11.35;;;0.90;99.90;;;;;;4964925;28;20489;-64
2023/12/04 04:36:50;;;;;;;27.50;11.65;;;0.90;99.90;;;;;;4963304;28;20497;-61
2023/12/04 04:39:16;;;;;;;22.58;10.50;;;0.90;99.90;;;;;;4962649;28;20035;-62
2023/12/04 04:41:41;;;;;;;26.30;11.13;;;0.90;99.90;;;;;;4963094;28;20035;-62
2023/12/04 04:44:07;;;;;;;27.23;11.80;;;0.90;99.90;;;;;;4964638;28;20061;-63
2023/12/04 04:46:32;;;;;;;19.45;9.85;;;0.90;99.90;;;;;;4959841;28;20039;-62
2023/12/04 04:48:58;;;;;;;22.52;10.43;;;0.80;99.90;;;;;;4958720;28;20465;-62
2023/12/04 04:51:23;;;;;;;24.52;11.95;;;0.80;99.90;;;;;;4963642;28;20026;-63
2023/12/04 04:53:50;;;;;;;28.35;10.82;;;0.80;99.90;;;;;;4962612;28;20057;-64
2023/12/04 04:56:17;;;;;;;21.55;11.57;;;0.80;99.90;;;;;;4963334;28;20030;-63
2023/12/04 04:58:42;;;;;;;21.17;10.63;;;0.80;99.90;;;;;;4965404;28;20548;-63
2023/12/04 05:01:08;;;;;;;22.55;10.70;;;0.70;99.90;;;;;;4968686;28;20031;-63
2023/12/04 05:03:34;;;;;;;24.35;11.63;;;0.70;99.90;;;;;;4966798;28;20039;-64
2023/12/04 05:06:00;;;;;;;22.65;10.27;;;0.80;99.90;;;;;;4967763;28;20015;-63
2023/12/04 05:08:25;;;;;;;21.95;11.27;;;0.70;99.90;;;;;;4966922;28;20031;-64
2023/12/04 05:10:51;;;;;;;23.83;10.85;;;0.70;99.90;;;;;;4967703;28;20991;-63
2023/12/04 05:13:17;;;;;;;25.70;11.00;;;0.80;99.90;;;;;;4967254;28;20481;-63
2023/12/04 05:15:42;;;;;;;24.33;10.50;;;0.80;99.90;;;;;;4968416;28;20500;-63
2023/12/04 05:18:08;;;;;;;25.80;11.15;;;0.80;99.90;;;;;;4967625;28;20033;-62
2023/12/04 05:20:33;;;;;;;26.63;12.32;;;0.80;99.90;;;;;;4964548;28;20072;-64
2023/12/04 05:22:59;;;;;;;25.02;12.23;;;0.80;99.90;;;;;;4968643;28;20101;-60
2023/12/04 05:25:24;;;;;;;24.88;11.77;;;0.90;99.90;;;;;;4966583;28;20070;-62
2023/12/04 05:27:50;;;;;;;26.35;11.35;;;0.80;99.90;;;;;;4969205;28;20081;-64
2023/12/04 05:30:16;;;;;;;29.20;11.27;;;0.80;99.90;;;;;;4968919;28;20035;-62
2023/12/04 05:32:41;;;;;;;24.85;11.77;;;0.80;99.90;;;;;;4970593;28;20477;-63
2023/12/04 05:35:07;;;;;;;26.48;11.75;;;0.90;99.90;;;;;;4963111;28;20031;-62
2023/12/04 05:37:32;;;;;;;21.58;11.85;;;0.80;99.90;;;;;;4965821;28;20034;-71
2023/12/04 05:39:58;;;;;;;27.00;12.48;;;0.80;99.90;;;;;;4968705;28;20089;-62
2023/12/04 05:42:23;;;;;;;26.40;11.63;;;0.90;99.90;;;;;;4965326;28;20101;-63
2023/12/04 05:44:49;;;;;;;26.80;12.18;;;0.90;99.90;;;;;;4969581;28;20030;-64
2023/12/04 05:47:14;;;;;;;26.88;12.48;;;0.90;99.90;;;;;;4968934;28;20601;-63
2023/12/04 05:49:40;;;;;;;31.88;13.32;;;0.90;99.90;;;;;;4971581;28;20462;-64
2023/12/04 05:52:06;;;;;;;22.02;12.15;;;0.90;99.90;;;;;;4968985;28;20034;-63
2023/12/04 05:54:32;;;;;;;28.25;12.52;;;0.90;99.90;;;;;;4969546;28;20062;-63
2023/12/04 05:56:58;;;;;;;28.90;11.93;;;1.00;99.90;;;;;;4970065;28;20033;-66
2023/12/04 05:59:23;;;;;;;29.58;13.18;;;0.90;99.90;;;;;;4967512;28;21039;-63
2023/12/04 06:01:49;;;;;;;28.90;12.68;;;0.90;99.90;;;;;;4968444;28;20112;-60
2023/12/04 06:04:14;;;;;;;28.08;13.10;;;0.90;99.90;;;;;;4967830;28;20619;-61
2023/12/04 06:06:40;;;;;;;28.98;13.13;;;0.90;99.90;;;;;;4965402;28;20390;-60
2023/12/04 06:09:06;;;;;;;30.42;13.80;;;1.00;99.90;;;;;;4963965;28;20385;-62
2023/12/04 06:11:31;;;;;;;27.55;12.93;;;1.00;99.90;;;;;;4969125;28;20015;-61
2023/12/04 06:13:57;;;;;;;27.75;12.32;;;1.00;99.90;;;;;;4967194;28;20069;-62
2023/12/04 06:16:22;;;;;;;27.27;12.05;;;1.00;99.90;;;;;;4966169;28;20054;-64
2023/12/04 06:18:48;;;;;;;28.55;12.88;;;1.00;99.90;;;;;;4967771;28;20035;-63
2023/12/04 06:21:14;;;;;;;29.33;13.60;;;1.00;99.90;;;;;;4969426;28;20058;-62
2023/12/04 06:23:40;;;;;;;30.45;13.13;;;1.00;99.90;;;;;;4968043;28;20026;-60
2023/12/04 06:26:06;;;;;;;25.88;13.02;;;1.00;99.90;;;;;;4964013;28;20092;-62
2023/12/04 06:28:32;;;;;;;28.05;13.35;;;1.10;99.90;;;;;;4974678;28;20026;-60
2023/12/04 06:30:58;;;;;;;26.35;12.85;;;1.10;99.90;;;;;;4965344;28;20039;-62
2023/12/04 06:33:24;;;;;;;31.15;13.10;;;1.10;99.90;;;;;;4966189;28;20412;-62
2023/12/04 06:35:50;;;;;;;28.42;12.65;;;1.00;99.90;;;;;;4967246;28;20031;-62
2023/12/04 06:38:18;;;;;;;31.30;12.95;;;1.00;99.90;;;;;;4966851;28;20054;-62
2023/12/04 06:40:44;;;;;;;29.55;12.45;;;1.00;99.90;;;;;;4966531;28;20023;-62
2023/12/04 06:43:10;;;;;;;28.88;11.75;;;1.10;99.90;;;;;;4968501;28;20034;-62
2023/12/04 06:45:36;;;;;;;28.70;13.48;;;1.10;99.90;;;;;;4970792;28;20526;-62
2023/12/04 06:48:02;;;;;;;29.02;13.75;;;1.10;99.90;;;;;;4972837;28;20027;-63
2023/12/04 06:50:27;;;;;;;31.67;14.10;;;1.00;99.90;;;;;;4962717;28;20387;-63
2023/12/04 06:52:53;;;;;;;27.92;13.30;;;0.90;99.90;;;;;;4971614;28;20038;-60
2023/12/04 06:55:19;;;;;;;29.77;14.25;;;0.90;99.90;;;;;;4966205;28;20027;-61
2023/12/04 06:57:44;;;;;;;29.38;14.00;;;0.90;99.90;;;;;;4972798;28;20030;-63
2023/12/04 07:00:12;;;;;;;32.85;13.70;;;0.90;99.90;;;;;;4970619;28;20035;-62
2023/12/04 07:02:38;;;;;;;33.58;14.10;;;0.90;99.90;;;;;;4972339;28;20041;-63
2023/12/04 07:05:04;;;;;;;29.08;14.95;;;0.90;99.90;;;;;;4967760;28;20042;-63
2023/12/04 07:07:29;;;;;;;29.63;14.55;;;0.80;99.90;;;;;;4971917;28;20104;-64
2023/12/04 07:09:55;;;;;;;29.13;13.73;;;0.90;99.90;;;;;;4972755;28;20154;-62
2023/12/04 07:12:21;;;;;;;31.58;15.25;;;0.90;99.90;;;;;;4972181;28;20026;-63
2023/12/04 07:14:47;;;;;;;31.27;13.73;;;0.90;99.90;;;;;;4969589;28;20038;-63
2023/12/04 07:17:12;;;;;;;34.35;14.70;;;0.90;99.90;;;;;;4969321;28;20026;-62
2023/12/04 07:19:38;;;;;;;32.22;13.98;;;0.90;99.90;;;;;;4965841;28;20078;-64
2023/12/04 07:22:03;;;;;;;29.27;13.52;;;0.90;99.90;;;;;;4969213;28;20023;-62
2023/12/04 07:24:29;;;;;;;38.40;16.10;;;0.90;99.90;;;;;;4972703;28;20031;-63
2023/12/04 07:26:54;;;;;;;33.53;14.43;;;0.90;99.90;;;;;;4970096;28;20034;-63
2023/12/04 07:29:20;;;;;;;29.30;14.43;;;0.90;99.90;;;;;;4965601;28;20020;-61
2023/12/04 07:31:45;;;;;;;29.17;13.20;;;0.80;99.90;;;;;;4972049;28;20062;-63
2023/12/04 07:34:11;;;;;;;30.73;14.80;;;0.90;99.90;;;;;;4970547;28;20062;-62
2023/12/04 07:36:36;;;;;;;30.88;14.70;;;0.90;99.90;;;;;;4971933;28;20449;-63
2023/12/04 07:39:04;;;;;;;29.02;14.25;;;0.90;99.90;;;;;;4971752;28;20034;-63
2023/12/04 07:41:31;;;;;;;29.67;13.30;;;0.90;99.90;;;;;;4971691;28;20026;-62
2023/12/04 07:43:57;;;;;;;29.88;13.70;;;0.90;99.90;;;;;;4969838;28;20701;-59
2023/12/04 07:46:22;;;;;;;29.20;14.10;;;0.80;99.90;;;;;;4967827;28;20023;-64
2023/12/04 07:48:48;;;;;;;36.28;14.93;;;0.80;99.90;;;;;;4966293;28;20111;-64
2023/12/04 07:51:13;;;;;;;31.13;15.23;;;0.90;99.90;;;;;;4971123;28;20029;-63
2023/12/04 07:53:39;;;;;;;30.25;13.63;;;0.80;99.90;;;;;;4972502;28;20055;-62
2023/12/04 07:56:05;;;;;;;31.52;14.15;;;0.90;99.90;;;;;;4971478;28;20481;-62
2023/12/04 07:58:31;;;;;;;30.13;13.82;;;0.80;99.90;;;;;;4967999;28;20074;-63
2023/12/04 08:00:57;;;;;;;29.08;12.98;;;0.90;99.90;;;;;;4971172;28;20150;-63
2023/12/04 08:03:23;;;;;;;35.85;14.15;;;0.90;99.90;;;;;;4972303;28;20031;-64
2023/12/04 08:05:50;;;;;;;30.58;13.02;;;0.90;99.90;;;;;;4972018;28;20023;-64
2023/12/04 08:08:16;;;;;;;32.15;14.32;;;0.90;99.90;;;;;;4969771;28;20389;-63
2023/12/04 08:10:41;;;;;;;28.60;13.40;;;0.90;99.90;;;;;;4965704;28;20038;-63
2023/12/04 08:13:07;;;;;;;35.08;13.27;;;0.90;99.90;;;;;;4970662;28;20042;-62
2023/12/04 08:15:32;;;;;;;33.97;14.18;;;0.90;99.90;;;;;;4971928;28;20035;-62
2023/12/04 08:17:58;;;;;;;30.88;14.15;;;0.90;99.90;;;;;;4967773;28;20035;-63
2023/12/04 08:20:23;;;;;;;27.90;13.43;;;0.90;99.90;;;;;;4963201;28;20469;-64
2023/12/04 08:22:49;;;;;;;27.30;13.18;;;0.90;99.90;;;;;;4972026;28;20031;-62
2023/12/04 08:25:15;;;;;;;32.78;13.52;;;1.00;99.90;;;;;;4970855;28;20070;-63
2023/12/04 08:27:40;;;;;;;29.38;14.00;;;0.90;99.90;;;;;;4969862;28;20035;-64
2023/12/04 08:30:06;;;;;;;27.98;13.60;;;1.00;99.90;;;;;;4970241;28;20027;-63
2023/12/04 08:32:32;;;;;;;30.77;13.10;;;0.90;99.90;;;;;;4970202;28;20026;-62
2023/12/04 08:34:57;;;;;;;28.65;12.43;;;0.90;99.90;;;;;;4966121;28;20098;-64
2023/12/04 08:37:23;;;;;;;32.78;13.55;;;0.90;99.90;;;;;;4968565;28;20039;-63
2023/12/04 08:39:48;;;;;;;27.52;12.60;;;1.00;99.90;;;;;;4965632;28;20096;-63
2023/12/04 08:42:14;;;;;;;30.05;13.10;;;0.90;99.90;;;;;;4968360;28;20027;-63
2023/12/04 08:44:40;;;;;;;31.23;13.25;;;1.00;99.90;;;;;;4972019;28;20031;-63
2023/12/04 08:47:06;;;;;;;37.13;12.70;;;1.00;99.90;;;;;;4969837;28;20019;-64
2023/12/04 08:49:32;;;;;;;31.00;12.60;;;1.00;99.90;;;;;;4970109;28;20404;-64
2023/12/04 08:51:58;;;;;;;28.83;13.20;;;1.00;99.90;;;;;;4970944;28;20082;-64
2023/12/04 08:54:24;;;;;;;30.23;13.15;;;1.00;99.90;;;;;;4971478;28;20093;-62
2023/12/04 08:56:50;;;;;;;26.73;13.18;;;1.10;99.90;;;;;;4969532;28;20030;-63
2023/12/04 08:59:16;;;;;;;31.10;13.57;;;1.00;99.90;;;;;;4970409;28;20118;-62
2023/12/04 09:01:42;;;;;;;29.50;12.65;;;1.10;99.90;;;;;;4970532;28;20097;-63
2023/12/04 09:04:09;;;;;;;31.23;14.23;;;1.10;99.90;;;;;;4968867;28;20027;-63
2023/12/04 09:06:34;;;;;;;26.40;11.80;;;1.00;99.90;;;;;;4969568;28;20035;-63
2023/12/04 09:09:00;;;;;;;27.52;12.15;;;1.00;99.90;;;;;;4970385;28;20903;-63
2023/12/04 09:11:25;;;;;;;24.75;12.43;;;1.00;99.90;;;;;;4965307;28;20043;-64
2023/12/04 09:13:51;;;;;;;26.42;12.82;;;1.10;99.90;;;;;;4965720;28;20027;-63
2023/12/04 09:16:17;;;;;;;30.58;12.27;;;1.10;99.90;;;;;;4964075;28;20497;-63
2023/12/04 09:18:42;;;;;;;27.30;12.52;;;1.20;99.90;;;;;;4967793;28;20023;-61
2023/12/04 09:21:08;;;;;;;26.73;12.60;;;1.20;99.90;;;;;;4968689;28;20086;-63
2023/12/04 09:23:35;;;;;;;27.08;12.40;;;1.30;99.90;;;;;;4967512;28;20090;-63
2023/12/04 09:26:00;;;;;;;27.23;12.50;;;1.20;99.90;;;;;;4967456;28;20063;-63
2023/12/04 09:28:26;;;;;;;27.60;12.32;;;1.20;99.90;;;;;;4968977;28;20015;-63
2023/12/04 09:30:51;;;;;;;29.50;12.60;;;1.10;99.90;;;;;;4968251;28;20085;-63
2023/12/04 09:33:17;;;;;;;27.73;11.80;;;1.20;99.90;;;;;;4968748;28;20070;-61
2023/12/04 09:35:42;;;;;;;26.38;12.10;;;1.20;99.90;;;;;;4963197;28;20082;-64
2023/12/04 09:38:08;;;;;;;24.63;12.35;;;1.30;99.90;;;;;;4969093;28;20131;-63
2023/12/04 09:40:33;;;;;;;29.83;12.85;;;1.20;99.90;;;;;;4966435;28;20664;-61
2023/12/04 09:42:59;;;;;;;26.15;11.82;;;1.30;99.90;;;;;;4967735;28;20481;-63
2023/12/04 09:45:26;;;;;;;26.67;12.18;;;1.30;99.90;;;;;;4967360;28;20449;-63
2023/12/04 09:47:52;;;;;;;27.83;11.50;;;1.40;99.90;;;;;;4968902;28;20014;-61
2023/12/04 09:50:20;;;;;;;24.45;11.05;;;1.40;99.90;;;;;;4972244;28;20018;-62
2023/12/04 09:52:49;;;;;;;28.55;11.63;;;1.40;99.90;;;;;;4969794;28;20027;-63
2023/12/04 09:55:15;;;;;;;23.45;11.60;;;1.40;99.90;;;;;;4968624;28;20424;-63
2023/12/04 09:57:42;;;;;;;26.33;11.43;;;1.50;99.90;;;;;;4971324;28;20035;-62
2023/12/04 10:00:10;;;;;;;22.13;11.38;;;1.50;99.90;;;;;;4971643;28;20493;-61
2023/12/04 10:02:36;;;;;;;26.92;11.02;;;1.50;99.90;;;;;;4972854;28;20045;-63
2023/12/04 10:05:04;;;;;;;25.75;11.15;;;1.60;99.90;;;;;;4969039;28;20109;-64
2023/12/04 10:07:30;;;;;;;30.48;12.13;;;1.70;99.90;;;;;;4969576;28;20495;-62
2023/12/04 10:09:56;;;;;;;25.08;11.40;;;1.70;99.90;;;;;;4973567;28;20045;-62
2023/12/04 10:12:24;;;;;;;26.98;11.43;;;1.70;99.90;;;;;;4968409;28;20594;-63
2023/12/04 10:15:09;;;;;;;24.08;11.65;;;1.70;99.90;;;;;;4972991;28;20038;-63
2023/12/04 10:17:39;;;;;;;24.58;11.25;;;1.70;99.90;;;;;;4970769;28;20062;-64
2023/12/04 10:20:12;;;;;;;27.30;10.32;;;1.80;99.90;;;;;;4973173;28;20136;-64
2023/12/04 10:22:52;;;;;;;27.17;10.70;;;1.70;99.90;;;;;;4968423;28;20027;-63
2023/12/04 10:25:19;;;;;;;23.08;10.63;;;1.70;99.90;;;;;;4968914;28;20022;-63
2023/12/04 10:27:45;;;;;;;20.10;10.95;;;1.70;99.90;;;;;;4968232;28;20485;-62
2023/12/04 10:30:22;;;;;;;27.35;11.00;;;1.80;99.90;;;;;;4964740;28;20048;-63
2023/12/04 10:32:48;;;;;;;24.55;11.02;;;1.80;99.90;;;;;;4967635;28;20444;-64
2023/12/04 10:35:14;;;;;;;25.15;10.40;;;1.80;99.90;;;;;;4971411;28;20019;-63
2023/12/04 10:37:39;;;;;;;19.80;9.98;;;1.90;99.90;;;;;;4965804;28;20012;-66
2023/12/04 10:40:08;;;;;;;26.05;11.32;;;1.80;99.90;;;;;;4965876;28;20034;-64
2023/12/04 10:42:34;;;;;;;24.58;10.82;;;1.80;99.90;;;;;;4967339;28;20070;-64
2023/12/04 10:45:00;;;;;;;23.67;10.38;;;1.80;99.90;;;;;;4967993;28;21456;-62
2023/12/04 10:47:28;;;;;;;24.23;10.23;;;1.80;99.90;;;;;;4969809;28;20070;-61
2023/12/04 10:49:54;;;;;;;26.25;11.88;;;1.90;99.90;;;;;;4971695;28;20030;-63
2023/12/04 10:52:21;;;;;;;24.73;11.32;;;1.90;99.90;;;;;;4966704;28;20602;-63
2023/12/04 10:54:47;;;;;;;19.65;10.07;;;1.90;99.90;;;;;;4971342;28;20499;-64
2023/12/04 10:57:22;;;;;;;25.35;10.48;;;1.80;99.90;;;;;;4969181;28;20106;-64
2023/12/04 10:59:51;;;;;;;18.30;9.32;;;1.80;99.90;;;;;;4972482;28;20110;-62
2023/12/04 11:02:21;;;;;;;23.65;11.02;;;1.90;99.90;;;;;;4970689;28;20085;-64
2023/12/04 11:04:50;;;;;;;19.73;8.85;;;2.00;99.90;;;;;;4970158;28;20097;-60
2023/12/04 11:07:19;;;;;;;21.05;10.07;;;2.00;99.90;;;;;;4972279;28;20421;-63
2023/12/04 11:09:48;;;;;;;21.73;9.65;;;2.00;99.90;;;;;;4968328;28;20015;-63
2023/12/04 11:12:20;;;;;;;26.40;9.68;;;2.10;99.90;;;;;;4985199;28;20118;-62
2023/12/04 11:14:53;;;;;;;24.58;10.55;;;2.10;99.90;;;;;;4971404;28;20061;-63
2023/12/04 11:17:20;;;;;;;24.38;9.93;;;2.20;99.90;;;;;;4965827;28;20066;-63
2023/12/04 11:20:07;;;;;;;17.88;10.20;;;2.10;99.90;;;;;;4971960;28;20054;-63
2023/12/04 11:22:35;;;;;;;22.33;10.63;;;2.10;99.90;;;;;;4968388;28;20393;-64
2023/12/04 11:25:05;;;;;;;18.38;9.73;;;2.20;99.90;;;;;;4969838;28;20037;-63
2023/12/04 11:27:31;;;;;;;20.55;9.48;;;2.20;99.90;;;;;;4969328;28;20035;-63
2023/12/04 11:29:58;;;;;;;26.95;11.55;;;2.30;99.90;;;;;;4968578;28;20473;-63
2023/12/04 11:32:27;;;;;;;21.90;10.35;;;2.20;99.90;;;;;;4966963;28;20031;-63
2023/12/04 11:34:59;;;;;;;25.95;11.27;;;2.20;99.90;;;;;;4968413;28;20524;-63
2023/12/04 11:37:25;;;;;;;25.60;11.48;;;2.00;99.90;;;;;;4969483;28;20026;-62
2023/12/04 11:39:51;;;;;;;24.50;11.70;;;2.00;99.90;;;;;;4970789;28;20074;-62
2023/12/04 11:42:23;;;;;;;29.25;12.38;;;1.90;99.90;;;;;;4970972;28;20018;-62
2023/12/04 11:44:49;;;;;;;24.35;11.98;;;1.70;99.90;;;;;;4971344;28;20086;-63
2023/12/04 11:47:15;;;;;;;23.92;11.00;;;1.70;99.90;;;;;;4971688;28;20022;-63
2023/12/04 11:49:41;;;;;;;28.05;12.32;;;1.70;99.90;;;;;;4967276;28;20576;-63
2023/12/04 11:52:07;;;;;;;27.40;12.38;;;1.60;99.90;;;;;;4967937;28;20030;-62
2023/12/04 11:54:59;;;;;;;23.90;11.70;;;1.60;99.90;;;;;;4967970;28;20030;-64
2023/12/04 11:57:26;;;;;;;23.25;10.93;;;1.70;99.90;;;;;;4970241;28;20106;-64
2023/12/04 11:59:53;;;;;;;28.20;11.65;;;1.60;99.90;;;;;;4967677;28;20019;-64
2023/12/04 12:02:20;;;;;;;25.40;12.55;;;1.60;99.90;;;;;;4970922;28;20506;-65
2023/12/04 12:04:46;;;;;;;27.25;12.68;;;1.50;99.90;;;;;;4958996;28;20041;-64
2023/12/04 12:07:12;;;;;;;24.15;11.45;;;1.60;99.90;;;;;;4965396;28;20077;-63
2023/12/04 12:09:38;;;;;;;28.73;12.55;;;1.60;99.90;;;;;;4973229;28;20055;-64
2023/12/04 12:12:04;;;;;;;26.60;11.82;;;1.70;99.90;;;;;;4966856;28;20512;-64
2023/12/04 12:14:31;;;;;;;30.35;12.93;;;1.70;99.90;;;;;;4966458;28;20039;-65
2023/12/04 12:17:00;;;;;;;24.17;12.30;;;1.60;99.90;;;;;;4969701;28;20030;-64
2023/12/04 12:19:25;;;;;;;31.23;13.32;;;1.60;99.90;;;;;;4969874;28;20502;-63
2023/12/04 12:21:51;;;;;;;30.98;12.85;;;1.60;99.90;;;;;;4968563;28;20034;-63
2023/12/04 12:24:18;;;;;;;23.15;11.68;;;1.50;99.90;;;;;;4966463;28;20041;-63
2023/12/04 12:26:44;;;;;;;27.35;11.75;;;1.60;99.90;;;;;;4970318;28;20023;-65
2023/12/04 12:29:11;;;;;;;32.47;13.57;;;1.70;99.90;;;;;;4967675;28;20567;-62
2023/12/04 12:31:37;;;;;;;30.40;13.55;;;1.70;99.90;;;;;;4966005;28;20485;-64
2023/12/04 12:34:02;;;;;;;31.02;12.40;;;1.60;99.90;;;;;;4968534;28;20033;-64